Flight Track Log - Related Links

Times and Time Zones

All times are in EDT time to prevent confusion due to time zone crossing. See the KAL1338 flight status page for this flight to view local times or setup timezone preferences in your user account.

Time Position Orientation Groundspeed Altitude Reporting Facility
EDT Latitude Longitude Course Direction KTS MPH feet Rate Location/Type
Thu 05:12:00 AM 35.0671 127.5486 346° North  Level Estimated
Thu 05:13:00 AM 35.1428 127.5263 346° North  Level Estimated
Thu 05:14:00 AM 35.2185 127.5039 346° North  Level Estimated
Thu 05:15:00 AM 35.2943 127.4815 346° North  Level Estimated
Thu 05:16:00 AM 35.3700 127.4590 346° North  Level Estimated
Thu 05:17:00 AM 35.4457 127.4365 346° North  Level Estimated
Thu 05:18:00 AM 35.5214 127.4140 346° North  Level Estimated
Thu 05:19:00 AM 35.5971 127.3914 346° North  Level Estimated
Thu 05:20:00 AM 35.6729 127.3688 346° North  Level Estimated
Thu 05:21:00 AM 35.7486 127.3461 346° North  Level Estimated
Thu 05:22:00 AM 35.8243 127.3234 346° North  Level Estimated
Thu 05:23:00 AM 35.9000 127.3007 346° North  Level Estimated
Thu 05:24:00 AM 35.9757 127.2779 346° North  Level Estimated
Thu 05:25:00 AM 36.0513 127.2550 346° North  Level Estimated
Thu 05:26:00 AM 36.1069 127.2382 346° North  Level Estimated
Thu 05:27:00 AM 36.1626 127.2214 346° North  Level Estimated
Thu 05:28:00 AM 36.2182 127.2045 346° North  Level Estimated
Thu 05:29:00 AM 36.2738 127.1877 346° North  Level Estimated
Thu 05:30:00 AM 36.3293 127.1708 346° North  Level Estimated
Thu 05:31:00 AM 36.3849 127.1538 346° North  Level Estimated
Thu 05:32:00 AM 36.4405 127.1369 346° North  Level Estimated
Thu 05:33:00 AM 36.4961 127.1199 346° North  Level Estimated
Thu 05:34:00 AM 36.5517 127.1029 346° North  Level Estimated
Thu 05:35:00 AM 36.6073 127.0859 346° North  Level Estimated
Thu 05:36:00 AM 36.6629 127.0688 346° North  Level Estimated
Thu 05:37:00 AM 36.7184 127.0518 346° North  Level Estimated
Thu 05:38:00 AM 36.7740 127.0347 346° North  Level Estimated
Thu 05:39:00 AM 36.8296 127.0175 346° North  Level Estimated
Thu 05:40:00 AM 36.8852 127.0004 346° North  Level Estimated
Thu 05:41:00 AM 36.9407 126.9832 346° North  Level Estimated
Thu 05:42:00 AM 36.9963 126.9660 346° North  Level Estimated
Thu 05:43:00 AM 37.0519 126.9488 346° North  Level Estimated
Thu 05:44:00 AM 37.1074 126.9315 346° North  Level Estimated
Thu 05:45:00 AM 37.1630 126.9143 346° North  Level Estimated
Thu 05:46:00 AM 37.2186 126.8970 346° North  Level Estimated
Thu 05:47:00 AM 37.2741 126.8796 346° North  Level Estimated
Thu 05:48:00 AM 37.3297 126.8623 346° North  Level Estimated
Thu 05:49:00 AM 37.3852 126.8449 346° North  Level Estimated
Thu 05:50:00 AM 37.4408 126.8275 346° North  Level Estimated
Thu 05:51:00 AM 37.4963 126.8101 346° North  Level Estimated
Thu 05:52:00 AM 37.5518 126.7926 346° North  Level Estimated
Thu 05:53:00 AM 37.5583 126.7906 346° North  Level Estimated
Thu 05:54:00 AM 37.5583 126.7906 288° West  Level Estimated
Thu 05:55:00 AM 37.5583 126.7906 288° West  Level Estimated
Thu 05:56:00 AM 37.5583 126.7906 288° West  Level Estimated
Thu 05:57:00 AM 37.5583 126.7906 288° West  Level Estimated
Thu 05:58:00 AM 37.5583 126.7906 288° West  Level Estimated
Thu 05:59:00 AM 37.5583 126.7906 288° West  Level Estimated

Login

Don't have an account? Register now (free) for customized features, flight alerts, and more!